Yellow Mule RAWS (NWS)

Jump to table bottom
Date/Time Wind Direction Wind Speed knots Wind Gust knots RH % Accumulated Precip Inches Air Temp Fahrenheit
2022-01-24 06:04 SW 12 16 46 0.08 18
2022-01-24 05:04 WSW 11 14 48 0.08 17
2022-01-24 04:04 WSW 10 16 46 0.08 18
2022-01-24 03:04 WSW 10 17 43 0.08 18
2022-01-24 02:04 WSW 12 16 44 0.08 18
2022-01-24 01:04 WSW 11 15 42 0.08 19
2022-01-24 00:04 WSW 11 17 40 0.08 20
2022-01-23 23:04 SW 14 22 39 0.08 21
2022-01-23 22:04 SW 11 16 37 0.08 22
2022-01-23 21:04 WSW 10 20 39 0.08 23
2022-01-23 20:04 SW 16 28 38 0.08 24
2022-01-23 19:04 SW 19 34 37 0.08 25
2022-01-23 18:04 WSW 18 24 42 0.08 24
2022-01-23 17:04 WSW 13 22 38 0.08 26
2022-01-23 16:04 WSW 10 23 36 0.08 26
2022-01-23 15:04 SW 16 22 40 0.08 26
2022-01-23 14:04 SW 14 19 35 0.08 29
2022-01-23 13:04 SW 14 23 31 0.08 30
2022-01-23 12:04 SW 14 21 37 0.08 29
2022-01-23 11:04 WSW 10 22 34 0.08 28
2022-01-23 10:04 W 11 23 30 0.08 29
2022-01-23 09:04 NW 15 28 37 0.08 26
2022-01-23 08:04 WNW 14 25 49 0.08 25
2022-01-23 07:04 WNW 11 20 52 0.08 25
2022-01-23 06:04 WNW 10 20 60 0.08 24
2022-01-23 05:04 WNW 12 20 67 0.08 23
2022-01-23 04:04 W 8 15 74 0.08 21
2022-01-23 03:04 SW 11 17 77 0.08 20
2022-01-23 02:04 SW 12 16 75 0.08 21
2022-01-23 01:04 WSW 9 12 72 0.08 23
2022-01-23 00:04 WSW 10 12 73 0.08 24
2022-01-22 23:04 WSW 10 11 85 0.08 20
2022-01-22 22:04 NW 5 11 81 0.08 22
2022-01-22 21:04 W 7 11 82 0.08 21
2022-01-22 20:04 W 6 11 85 0.08 22
2022-01-22 19:04 NW 9 14 85 0.08 21
2022-01-22 18:04 SW 8 9 88 0.08 20
2022-01-22 17:04 W 4 14 86 0.08 22
2022-01-22 16:04 WSW 11 13 83 0.08 23
2022-01-22 15:04 WSW 5 10 83 0.08 25
2022-01-22 14:04 NNW 3 9 82 0.06 24
2022-01-22 13:04 WSW 5 10 80 0.02 26
2022-01-22 12:04 SW 3 7 84 0 24
2022-01-22 11:04 S 3 8 85 0 18
2022-01-22 10:04 W 6 10 89 0 16
2022-01-22 09:04 NNE 3 12 88 0 14
2022-01-22 08:04 NNE 3 11 89 0 14
2022-01-22 07:04 W 8 11 90 0 14
2022-01-22 06:04 W 5 12 88 0 13
2022-01-22 05:04 W 8 13 89 0 13